Airfield :
LOGIN :

Register | Disclaimer

   EN    FR    IT 

 










Legend :    VFR   Marginal VFR   IFR   Intensive IFR   Very Intensive IFR
Visi :
Ceiling :
>= 8 km
>= 3000ft
5 to 8 km
1000 to 3000 ft
1500m to 5 km
500 to 1000 ft
800 to 1500m
200 to 500 ft
< 800m
< 200 ft
Symbols :   Thunderstorms  Fog  Heavy snow  Heavy precipitations  Wind > 20 kt
SIGMETs :     Misc.  Thunderstorms  Icing  Turbulence  Mountain Waves  Volcanic Ashes






- Airport Elevation : 267 ft


EGDR - Culdrose Navy

CURRENT METAR :
  • 282250Z AUTO 26014KT 9999 // BKN050/// SCT130/// 11/09 Q1011

EXPIRED METARs :
  • 282220Z 26012KT 9999 -RA FEW030 BKN050 11/09 Q1011 BLU TEMPO 5000 SHRA SCT018 BKN018TCU BLU TEMPO GRN
  • 282150Z 27018G31KT 4000 -RA SCT015 BKN030 BKN050 11/08 Q1011 NOSIG GRN TEMPO GRN
  • 282125Z 26014G25KT CAVOK 12/08 Q1010 TEMPO 5000 SHRA SCT018 BKN018TCU BLU TEMPO GRN
  • 282050Z 26014KT 9999 FEW030 SCT050 BKN100 12/08 Q1009 TEMPO 5000 SHRA SCT018 BKN018TCU BLU TEMPO GRN
  • 282022Z 27016G26KT CAVOK 12/07 Q1009 BLU TEMPO 5000 SHRA SCT018 BKN018TCU BLU TEMPO GRN

TAF TAF EGDR
Valid from the 28 at 18:00 until the 29 at 03:00 UTC


281619Z 2818/2903 27020G30KT 9999 SCT030
TEMPO 2818/2824 5000 SHRA SCT010 BKN018TCU
BECMG 2822/2824 23020G30KT NSW FEW010 SCT020
TEMPO 2900/2903 SCT008



MET'MAP, your aeronautical weather chart ! - Copyright ORBIFLY December 2007 - Disclaimer

ORBIFLY MET'MAP TEAM :

Programming & Development : Alexandra Zaïnal
Concept & original design : Baudouin d'Aumeries
Assistance for programming : Marc-Olivier Méhu
Technical & hardware support : Manuel Goepfert

Contact : metmap@orbifly.com




SOURCES & CREDITS :

   NOAA